createdAt,value
2023-05-08T00:01:55.224Z,98025.26
2023-05-08T00:04:23.539Z,98026.20
2023-05-08T00:06:53.097Z,98027.06
2023-05-08T00:09:21.432Z,98028.80
2023-05-08T00:11:49.652Z,98024.96
2023-05-08T00:14:17.879Z,98020.36
2023-05-08T00:16:46.107Z,98010.33
2023-05-08T00:19:14.382Z,98005.39
2023-05-08T00:21:42.804Z,97998.95
2023-05-08T00:24:11.024Z,97996.17
2023-05-08T00:26:39.321Z,97993.65
2023-05-08T00:29:07.941Z,97991.45
2023-05-08T00:31:36.213Z,97995.26
2023-05-08T00:34:04.581Z,97997.08
2023-05-08T00:36:32.990Z,98005.54
2023-05-08T00:39:01.330Z,98005.31
2023-05-08T00:41:29.607Z,98004.64
2023-05-08T00:43:58.202Z,98011.27
2023-05-08T00:46:26.952Z,98008.54
2023-05-08T00:48:55.290Z,98012.65
2023-05-08T00:51:23.943Z,98018.63
2023-05-08T00:53:52.323Z,98014.81
2023-05-08T00:56:22.815Z,98018.18
2023-05-08T00:58:51.335Z,98021.16
2023-05-08T01:01:19.675Z,98025.77
2023-05-08T01:03:48.300Z,98022.95
2023-05-08T01:06:16.859Z,98026.86
2023-05-08T01:08:45.705Z,98026.46
2023-05-08T01:11:41.666Z,98025.73
2023-05-08T01:14:47.016Z,98027.70
2023-05-08T01:17:37.020Z,98025.48
2023-05-08T01:20:23.084Z,98024.33
2023-05-08T01:22:59.372Z,98020.73
2023-05-08T01:26:11.348Z,98022.52
2023-05-08T01:28:45.520Z,98021.80
2023-05-08T01:31:26.406Z,98016.84
2023-05-08T01:34:15.235Z,98020.28
2023-05-08T01:36:53.302Z,98020.02
2023-05-08T01:40:10.969Z,98018.56
2023-05-08T01:42:50.996Z,98019.72
2023-05-08T01:45:35.834Z,98018.73
2023-05-08T01:48:10.944Z,98018.79
2023-05-08T01:50:57.288Z,98012.75
2023-05-08T01:53:38.705Z,98010.44
2023-05-08T01:56:17.181Z,98011.70
2023-05-08T01:58:48.059Z,98018.08
2023-05-08T02:01:20.286Z,98018.20
2023-05-08T02:03:50.086Z,98014.34
2023-05-08T02:06:22.138Z,98014.44
2023-05-08T02:08:52.550Z,98013.40
2023-05-08T02:11:22.952Z,98014.69
2023-05-08T02:13:53.013Z,98018.92
2023-05-08T02:16:23.082Z,98017.71
2023-05-08T02:18:58.729Z,98021.70
2023-05-08T02:21:28.168Z,98019.84
2023-05-08T02:23:58.054Z,98017.07
2023-05-08T02:26:27.790Z,98020.33
2023-05-08T02:28:56.641Z,98023.30
2023-05-08T02:31:25.607Z,98017.30
2023-05-08T02:33:54.307Z,98015.93
2023-05-08T02:36:23.770Z,98014.56
2023-05-08T02:38:56.273Z,98017.65
2023-05-08T02:41:28.069Z,98021.95
2023-05-08T02:43:57.105Z,98019.23
2023-05-08T02:47:10.676Z,98018.16
2023-05-08T02:49:45.926Z,98013.70
2023-05-08T02:52:23.234Z,98014.73
2023-05-08T02:55:03.658Z,98017.33
2023-05-08T02:58:07.508Z,98018.41
2023-05-08T03:00:46.904Z,98017.11
2023-05-08T03:03:25.975Z,98013.05
2023-05-08T03:05:57.915Z,98017.35
2023-05-08T03:08:32.865Z,98017.63
2023-05-08T03:11:18.249Z,98019.31
2023-05-08T03:13:49.322Z,98017.94
2023-05-08T03:16:25.683Z,98019.61
2023-05-08T03:19:01.458Z,98017.80
2023-05-08T03:21:31.999Z,98024.54
2023-05-08T03:24:03.347Z,98021.34
2023-05-08T03:26:32.097Z,98024.61
2023-05-08T03:29:00.982Z,98031.06
2023-05-08T03:31:35.416Z,98030.30
2023-05-08T03:34:05.124Z,98027.87
2023-05-08T03:36:33.484Z,98032.94
2023-05-08T03:39:03.372Z,98032.15
2023-05-08T03:41:32.175Z,98032.45
2023-05-08T03:44:03.511Z,98038.73
2023-05-08T03:46:34.648Z,98038.75
2023-05-08T03:49:06.156Z,98040.48
2023-05-08T03:51:37.453Z,98035.18
2023-05-08T03:54:06.080Z,98037.85
2023-05-08T03:56:35.332Z,98036.74
2023-05-08T03:59:28.382Z,98037.02
2023-05-08T04:02:33.903Z,98041.63
2023-05-08T04:05:21.540Z,98042.20
2023-05-08T04:08:04.618Z,98045.98
2023-05-08T04:10:42.666Z,98043.35
2023-05-08T04:13:19.161Z,98044.48
2023-05-08T04:15:58.790Z,98046.45
2023-05-08T04:18:30.700Z,98049.81
2023-05-08T04:21:03.437Z,98050.60
2023-05-08T04:23:33.761Z,98051.52
2023-05-08T04:26:05.516Z,98055.08
2023-05-08T04:28:35.138Z,98053.39
2023-05-08T04:31:05.170Z,98053.16
2023-05-08T04:33:35.918Z,98045.38
2023-05-08T04:36:05.025Z,98043.08
2023-05-08T04:38:37.873Z,98050.75
2023-05-08T04:41:07.028Z,98057.11
2023-05-08T04:43:36.945Z,98064.13
2023-05-08T04:46:06.704Z,98070.75
2023-05-08T04:48:35.157Z,98074.33
2023-05-08T04:51:03.753Z,98078.31
2023-05-08T04:53:32.426Z,98072.29
2023-05-08T04:56:01.006Z,98073.44
2023-05-08T04:58:30.026Z,98070.10
2023-05-08T05:01:03.921Z,98072.45
2023-05-08T05:03:32.332Z,98075.67
2023-05-08T05:06:02.640Z,98075.09
2023-05-08T05:08:31.621Z,98072.58
2023-05-08T05:11:00.151Z,98074.46
2023-05-08T05:13:28.960Z,98073.35
2023-05-08T05:16:00.254Z,98072.62
2023-05-08T05:18:28.684Z,98071.11
2023-05-08T05:21:00.419Z,98076.89
2023-05-08T05:23:29.634Z,98075.73
2023-05-08T05:25:58.067Z,98079.52
2023-05-08T05:28:26.384Z,98078.45
2023-05-08T05:30:54.756Z,98080.98
2023-05-08T05:33:23.300Z,98076.17
2023-05-08T05:35:52.032Z,98078.09
2023-05-08T05:38:20.553Z,98071.93
2023-05-08T05:40:49.607Z,98072.86
2023-05-08T05:43:17.892Z,98068.70
2023-05-08T05:45:46.498Z,98070.34
2023-05-08T05:48:15.059Z,98076.70
2023-05-08T05:50:43.251Z,98075.37
2023-05-08T05:53:11.547Z,98075.17
2023-05-08T05:55:39.797Z,98074.50
2023-05-08T05:58:08.115Z,98071.84
2023-05-08T06:00:36.480Z,98071.30
2023-05-08T06:03:05.784Z,98071.58
2023-05-08T06:05:34.102Z,98070.96
2023-05-08T06:08:02.492Z,98071.20
2023-05-08T06:10:30.762Z,98068.89
2023-05-08T06:12:59.097Z,98071.88
2023-05-08T06:15:27.490Z,98071.92
2023-05-08T06:17:55.755Z,98077.14
2023-05-08T06:20:26.130Z,98077.89
2023-05-08T06:22:54.690Z,98076.68
2023-05-08T06:25:23.012Z,98074.80
2023-05-08T06:27:51.229Z,98081.27
2023-05-08T06:30:19.674Z,98083.06
2023-05-08T06:32:47.946Z,98082.05
2023-05-08T06:35:19.666Z,98084.52
2023-05-08T06:37:47.930Z,98084.55
2023-05-08T06:40:16.167Z,98086.94
2023-05-08T06:42:44.413Z,98086.91
2023-05-08T06:45:15.737Z,98088.88
2023-05-08T06:47:44.283Z,98091.36
2023-05-08T06:50:12.518Z,98092.66
2023-05-08T06:52:40.837Z,98094.68
2023-05-08T06:55:09.370Z,98095.30
2023-05-08T06:57:37.663Z,98099.05
2023-05-08T07:00:06.989Z,98099.15
2023-05-08T07:02:35.358Z,98096.30
2023-05-08T07:05:04.159Z,98099.60
2023-05-08T07:07:32.577Z,98102.04
2023-05-08T07:10:00.962Z,98101.45
2023-05-08T07:12:29.136Z,98102.29
2023-05-08T07:14:58.015Z,98100.06
2023-05-08T07:17:26.959Z,98099.46
2023-05-08T07:19:55.205Z,98102.30
2023-05-08T07:22:23.485Z,98104.55
2023-05-08T07:24:51.946Z,98105.59
2023-05-08T07:27:20.346Z,98105.01
2023-05-08T07:29:48.608Z,98100.40
2023-05-08T07:32:16.939Z,98107.38
2023-05-08T07:34:45.213Z,98115.83
2023-05-08T07:37:13.436Z,98113.58
2023-05-08T07:39:41.646Z,98115.44
2023-05-08T07:42:09.926Z,98114.29
2023-05-08T07:44:50.658Z,98119.19
2023-05-08T07:47:22.994Z,98118.58
2023-05-08T07:49:51.626Z,98121.20
2023-05-08T07:52:20.094Z,98123.55
2023-05-08T07:54:48.467Z,98121.73
2023-05-08T07:57:16.695Z,98121.61
2023-05-08T07:59:44.896Z,98124.48
2023-05-08T08:02:13.264Z,98131.09
2023-05-08T08:04:41.627Z,98129.02
2023-05-08T08:07:09.934Z,98129.29
2023-05-08T08:09:38.365Z,98125.46
2023-05-08T08:12:06.750Z,98124.07
2023-05-08T08:14:34.968Z,98119.84
2023-05-08T08:17:03.360Z,98120.42
2023-05-08T08:19:31.720Z,98123.05
2023-05-08T08:22:00.045Z,98124.13
2023-05-08T08:24:29.545Z,98126.20
2023-05-08T08:26:57.938Z,98128.94
2023-05-08T08:29:26.636Z,98130.77
2023-05-08T08:31:54.871Z,98132.77
2023-05-08T08:34:23.689Z,98135.23
2023-05-08T08:36:51.972Z,98135.40
2023-05-08T08:39:20.357Z,98135.05
2023-05-08T08:41:48.631Z,98135.13
2023-05-08T08:44:16.880Z,98133.11
2023-05-08T08:46:51.621Z,98128.41
2023-05-08T08:49:29.815Z,98122.77
2023-05-08T08:52:15.873Z,98124.95
2023-05-08T08:54:46.785Z,98125.13
2023-05-08T08:57:16.058Z,98127.08
2023-05-08T08:59:45.031Z,98126.32
2023-05-08T09:02:15.279Z,98123.98
2023-05-08T09:04:44.174Z,98125.02
2023-05-08T09:07:12.721Z,98128.95
2023-05-08T09:09:41.285Z,98130.09
2023-05-08T09:12:09.968Z,98129.79
2023-05-08T09:14:38.278Z,98126.95
2023-05-08T09:17:06.631Z,98129.51
2023-05-08T09:19:35.625Z,98132.27
2023-05-08T09:22:06.887Z,98135.65
2023-05-08T09:24:56.032Z,98137.10
2023-05-08T09:27:27.119Z,98137.34
2023-05-08T09:30:05.094Z,98136.70
2023-05-08T09:32:41.050Z,98136.58
2023-05-08T09:35:11.532Z,98136.29
2023-05-08T09:37:43.465Z,98133.14
2023-05-08T09:40:22.540Z,98128.59
2023-05-08T09:42:51.201Z,98130.63
2023-05-08T09:45:32.234Z,98123.81
2023-05-08T09:48:00.894Z,98123.11
2023-05-08T09:50:29.114Z,98120.27
2023-05-08T09:52:57.708Z,98122.63
2023-05-08T09:55:26.078Z,98122.83
2023-05-08T09:58:00.579Z,98123.21
2023-05-08T10:00:29.586Z,98121.99
2023-05-08T10:03:04.323Z,98122.45
2023-05-08T10:05:36.037Z,98122.35
2023-05-08T10:08:26.610Z,98118.84
2023-05-08T10:11:03.537Z,98120.63
2023-05-08T10:13:31.739Z,98118.80
2023-05-08T10:16:01.017Z,98119.81
2023-05-08T10:18:33.473Z,98121.73
2023-05-08T10:21:07.997Z,98120.67
2023-05-08T10:23:38.081Z,98117.91
2023-05-08T10:26:31.257Z,98119.61
2023-05-08T10:29:07.184Z,98115.36
2023-05-08T10:31:39.039Z,98116.14
2023-05-08T10:34:10.210Z,98114.44
2023-05-08T10:36:38.973Z,98112.68
2023-05-08T10:39:07.650Z,98110.42
2023-05-08T10:41:37.306Z,98115.13
2023-05-08T10:44:07.109Z,98117.19
2023-05-08T10:46:52.031Z,98115.56
2023-05-08T10:49:47.994Z,98119.95
2023-05-08T10:52:36.866Z,98121.87
2023-05-08T10:55:24.238Z,98119.34
2023-05-08T10:58:29.630Z,98122.83
2023-05-08T11:00:59.772Z,98124.13
2023-05-08T11:03:32.818Z,98121.63
2023-05-08T11:06:01.946Z,98123.16
2023-05-08T11:08:32.749Z,98121.11
2023-05-08T11:11:11.324Z,98121.80
2023-05-08T11:13:48.578Z,98122.62
2023-05-08T11:16:16.781Z,98123.52
2023-05-08T11:19:17.739Z,98127.52
2023-05-08T11:22:30.248Z,98125.81
2023-05-08T11:25:09.440Z,98121.98
2023-05-08T11:27:39.850Z,98126.00
2023-05-08T11:30:32.753Z,98134.48
2023-05-08T11:33:04.034Z,98150.09
2023-05-08T11:35:58.184Z,98147.87
2023-05-08T11:38:38.633Z,98144.05
2023-05-08T11:41:24.588Z,98147.48
2023-05-08T11:44:05.203Z,98145.27
2023-05-08T11:47:03.730Z,98146.74
2023-05-08T11:49:32.160Z,98151.05
2023-05-08T11:52:00.557Z,98157.02
2023-05-08T11:54:31.447Z,98156.03
2023-05-08T11:56:59.941Z,98159.85
2023-05-08T11:59:34.959Z,98160.72
2023-05-08T12:02:09.095Z,98154.69
2023-05-08T12:04:46.822Z,98156.88
2023-05-08T12:07:16.671Z,98159.98
2023-05-08T12:09:46.895Z,98159.04
2023-05-08T12:12:15.288Z,98162.20
2023-05-08T12:14:43.536Z,98160.63
2023-05-08T12:17:12.140Z,98158.88
2023-05-08T12:19:43.598Z,98159.01
2023-05-08T12:22:12.322Z,98160.98
2023-05-08T12:24:40.833Z,98160.58
2023-05-08T12:27:09.327Z,98163.55
2023-05-08T12:29:37.775Z,98163.11
2023-05-08T12:32:06.085Z,98162.55
2023-05-08T12:34:35.547Z,98162.08
2023-05-08T12:37:05.332Z,98164.08
2023-05-08T12:39:37.832Z,98164.84
2023-05-08T12:42:06.318Z,98159.90
2023-05-08T12:44:34.586Z,98157.56
2023-05-08T12:47:05.817Z,98158.91
2023-05-08T12:49:34.137Z,98158.75
2023-05-08T12:52:07.172Z,98160.75
2023-05-08T12:54:38.596Z,98161.92
2023-05-08T12:57:18.959Z,98159.98
2023-05-08T12:59:47.455Z,98160.15
2023-05-08T13:02:23.845Z,98160.88
2023-05-08T13:04:58.354Z,98162.94
2023-05-08T13:07:32.902Z,98165.38
2023-05-08T13:10:04.914Z,98167.10
2023-05-08T13:12:34.423Z,98174.98
2023-05-08T13:15:05.063Z,98172.84
2023-05-08T13:17:33.415Z,98176.00
2023-05-08T13:20:05.792Z,98175.30
2023-05-08T13:22:34.727Z,98181.61
2023-05-08T13:25:03.607Z,98178.54
2023-05-08T13:27:32.957Z,98178.97
2023-05-08T13:30:01.249Z,98183.64
2023-05-08T13:32:29.880Z,98183.75
2023-05-08T13:35:00.274Z,98184.36
2023-05-08T13:37:30.429Z,98185.66
2023-05-08T13:39:58.703Z,98189.55
2023-05-08T13:42:26.968Z,98189.27
2023-05-08T13:44:55.203Z,98188.31
2023-05-08T13:47:23.571Z,98189.58
2023-05-08T13:49:52.067Z,98195.27
2023-05-08T13:52:20.507Z,98195.60
2023-05-08T13:54:49.043Z,98201.30
2023-05-08T13:57:27.804Z,98201.56
2023-05-08T13:59:56.586Z,98208.12
2023-05-08T14:02:25.281Z,98210.30
2023-05-08T14:04:54.376Z,98211.52
2023-05-08T14:07:22.876Z,98213.81
2023-05-08T14:09:51.353Z,98219.55
2023-05-08T14:12:19.648Z,98222.96
2023-05-08T14:14:47.896Z,98222.17
2023-05-08T14:17:16.312Z,98223.35
2023-05-08T14:19:46.231Z,98225.98
2023-05-08T14:22:14.593Z,98230.43
2023-05-08T14:24:43.037Z,98229.08
2023-05-08T14:27:11.716Z,98230.05
2023-05-08T14:29:41.444Z,98232.32
2023-05-08T14:32:11.156Z,98231.02
2023-05-08T14:34:39.442Z,98233.18
2023-05-08T14:37:07.756Z,98230.83
2023-05-08T14:39:35.996Z,98234.78
2023-05-08T14:44:35.694Z,98240.79
2023-05-08T14:47:04.153Z,98249.27
2023-05-08T14:49:38.034Z,98252.61
2023-05-08T14:52:07.414Z,98254.61
2023-05-08T14:54:35.936Z,98253.52
2023-05-08T14:57:05.609Z,98257.09
2023-05-08T14:59:33.940Z,98265.88
2023-05-08T15:02:02.526Z,98266.08
2023-05-08T15:04:30.928Z,98268.30
2023-05-08T15:06:59.185Z,98273.57
2023-05-08T15:09:27.421Z,98275.95
2023-05-08T15:11:55.914Z,98277.81
2023-05-08T15:14:24.689Z,98284.02
2023-05-08T15:16:53.019Z,98281.39
2023-05-08T15:19:21.397Z,98286.84
2023-05-08T15:21:49.597Z,98286.39
2023-05-08T15:24:17.807Z,98287.65
2023-05-08T15:26:46.062Z,98293.42
2023-05-08T15:29:14.303Z,98292.55
2023-05-08T15:31:42.544Z,98294.61
2023-05-08T15:34:10.799Z,98297.91
2023-05-08T15:36:38.990Z,98294.81
2023-05-08T15:39:07.329Z,98296.73
2023-05-08T15:41:37.432Z,98298.84
2023-05-08T15:44:06.562Z,98297.76
2023-05-08T15:46:34.806Z,98297.61
2023-05-08T15:49:03.311Z,98302.36
2023-05-08T15:51:32.326Z,98305.80
2023-05-08T15:54:00.718Z,98304.30
2023-05-08T15:56:28.998Z,98305.77
2023-05-08T15:58:57.306Z,98304.20
2023-05-08T16:01:25.637Z,98304.24
2023-05-08T16:03:56.118Z,98304.44
2023-05-08T16:06:24.451Z,98314.58
2023-05-08T16:08:52.760Z,98318.85
2023-05-08T16:11:21.789Z,98323.91
2023-05-08T16:13:50.055Z,98321.67
2023-05-08T16:16:18.425Z,98331.44
2023-05-08T16:18:46.656Z,98332.58
2023-05-08T16:21:14.928Z,98337.51
2023-05-08T16:23:43.371Z,98336.98
2023-05-08T16:26:14.108Z,98336.75
2023-05-08T16:28:42.417Z,98339.36
2023-05-08T16:31:11.991Z,98338.90
2023-05-08T16:33:40.222Z,98344.50
2023-05-08T16:36:08.832Z,98344.43
2023-05-08T16:38:37.164Z,98348.46
2023-05-08T16:41:07.405Z,98348.27
2023-05-08T16:43:35.686Z,98348.06
2023-05-08T16:46:07.509Z,98347.44
2023-05-08T16:48:35.910Z,98349.20
2023-05-08T16:51:04.327Z,98352.27
2023-05-08T16:53:33.217Z,98357.11
2023-05-08T16:56:01.504Z,98357.61
2023-05-08T16:58:29.768Z,98360.80
2023-05-08T17:00:58.084Z,98367.73
2023-05-08T17:03:26.671Z,98373.70
2023-05-08T17:05:55.108Z,98373.83
2023-05-08T17:08:23.408Z,98374.44
2023-05-08T17:10:54.287Z,98377.14
2023-05-08T17:13:22.588Z,98376.58
2023-05-08T17:15:51.061Z,98377.70
2023-05-08T17:18:19.725Z,98383.04
2023-05-08T17:20:47.945Z,98387.08
2023-05-08T17:23:16.160Z,98393.13
2023-05-08T17:25:44.347Z,98402.73
2023-05-08T17:28:12.681Z,98411.69
2023-05-08T17:30:40.984Z,98413.04
2023-05-08T17:33:09.318Z,98418.97
2023-05-08T17:35:37.753Z,98424.30
2023-05-08T17:38:06.006Z,98427.41
2023-05-08T17:40:34.350Z,98431.27
2023-05-08T17:43:02.889Z,98433.00
2023-05-08T17:45:31.768Z,98439.02
2023-05-08T17:48:00.643Z,98445.01
2023-05-08T17:50:28.897Z,98451.19
2023-05-08T17:52:57.470Z,98457.17
2023-05-08T17:55:25.812Z,98461.80
2023-05-08T17:57:54.035Z,98466.72
2023-05-08T18:00:22.823Z,98469.92
2023-05-08T18:02:51.273Z,98473.98
2023-05-08T18:05:19.718Z,98476.03
2023-05-08T18:07:47.994Z,98477.77
2023-05-08T18:10:16.546Z,98484.28
2023-05-08T18:12:45.088Z,98489.21
2023-05-08T18:15:14.947Z,98490.65
2023-05-08T18:17:43.273Z,98491.25
2023-05-08T18:20:12.221Z,98498.66
2023-05-08T18:22:40.763Z,98502.11
2023-05-08T18:25:09.232Z,98503.60
2023-05-08T18:27:37.505Z,98507.95
2023-05-08T18:30:06.848Z,98514.02
2023-05-08T18:32:38.377Z,98515.69
2023-05-08T18:35:09.070Z,98523.05
2023-05-08T18:37:37.469Z,98528.70
2023-05-08T18:40:06.685Z,98527.35
2023-05-08T18:42:34.973Z,98535.96
2023-05-08T18:45:06.154Z,98543.36
2023-05-08T18:47:34.486Z,98543.00
2023-05-08T18:50:02.878Z,98547.55
2023-05-08T18:52:31.290Z,98549.19
2023-05-08T18:54:59.577Z,98548.59
2023-05-08T18:57:27.832Z,98548.70
2023-05-08T18:59:56.080Z,98553.17
2023-05-08T19:02:24.917Z,98554.21
2023-05-08T19:04:53.619Z,98553.58
2023-05-08T19:07:21.937Z,98555.06
2023-05-08T19:09:50.145Z,98555.89
2023-05-08T19:12:18.417Z,98563.01
2023-05-08T19:14:46.669Z,98560.79
2023-05-08T19:17:14.891Z,98569.09
2023-05-08T19:19:43.147Z,98562.85
2023-05-08T19:22:11.678Z,98565.70
2023-05-08T19:24:40.342Z,98570.36
2023-05-08T19:27:08.733Z,98576.98
2023-05-08T19:29:36.990Z,98576.95
2023-05-08T19:32:05.567Z,98576.64
2023-05-08T19:34:37.135Z,98584.20
2023-05-08T19:37:06.512Z,98583.93
2023-05-08T19:39:34.786Z,98581.30
2023-05-08T19:42:03.055Z,98582.88
2023-05-08T19:44:32.944Z,98585.83
2023-05-08T19:47:03.795Z,98588.42
2023-05-08T19:49:32.517Z,98585.58
2023-05-08T19:52:00.727Z,98593.55
2023-05-08T19:54:30.714Z,98596.06
2023-05-08T19:56:58.997Z,98591.47
2023-05-08T19:59:27.849Z,98592.56
2023-05-08T20:01:56.166Z,98592.45
2023-05-08T20:04:24.353Z,98592.59
2023-05-08T20:06:52.628Z,98596.62
2023-05-08T20:09:20.905Z,98601.00
2023-05-08T20:11:49.871Z,98598.56
2023-05-08T20:14:18.086Z,98602.48
2023-05-08T20:16:46.344Z,98598.85
2023-05-08T20:19:14.634Z,98602.98
2023-05-08T20:21:44.036Z,98599.64
2023-05-08T20:24:12.361Z,98598.32
2023-05-08T20:26:41.562Z,98599.13
2023-05-08T20:29:10.185Z,98596.61
2023-05-08T20:31:38.578Z,98597.82
2023-05-08T20:34:07.538Z,98602.36
2023-05-08T20:36:35.835Z,98602.27
2023-05-08T20:39:06.796Z,98601.89
2023-05-08T20:41:35.030Z,98609.58
2023-05-08T20:44:03.314Z,98608.23
2023-05-08T20:46:31.820Z,98612.29
2023-05-08T20:49:02.034Z,98614.48
2023-05-08T20:51:31.948Z,98615.83
2023-05-08T20:54:00.330Z,98617.27
2023-05-08T20:56:28.785Z,98621.12
2023-05-08T20:58:57.046Z,98624.26
2023-05-08T21:01:25.265Z,98623.39
2023-05-08T21:03:53.535Z,98622.80
2023-05-08T21:06:21.773Z,98623.02
2023-05-08T21:08:50.490Z,98625.40
2023-05-08T21:11:18.742Z,98629.73
2023-05-08T21:13:47.060Z,98634.69
2023-05-08T21:16:16.276Z,98639.00
2023-05-08T21:18:44.650Z,98638.40
2023-05-08T21:21:22.735Z,98634.95
2023-05-08T21:23:50.968Z,98638.11
2023-05-08T21:26:21.031Z,98638.09
2023-05-08T21:28:50.146Z,98637.73
2023-05-08T21:31:18.725Z,98636.36
2023-05-08T21:33:47.016Z,98644.52
2023-05-08T21:36:15.366Z,98643.27
2023-05-08T21:38:43.873Z,98647.08
2023-05-08T21:41:12.136Z,98644.71
2023-05-08T21:43:40.397Z,98645.73
2023-05-08T21:46:09.377Z,98642.34
2023-05-08T21:48:37.747Z,98642.60
2023-05-08T21:51:06.914Z,98642.21
2023-05-08T21:53:35.258Z,98643.11
2023-05-08T21:56:03.763Z,98643.30
2023-05-08T21:58:31.990Z,98641.27
2023-05-08T22:01:00.261Z,98645.17
2023-05-08T22:03:28.597Z,98642.64
2023-05-08T22:05:56.869Z,98641.27
2023-05-08T22:08:25.061Z,98647.12
2023-05-08T22:10:53.284Z,98650.99
2023-05-08T22:13:21.774Z,98656.17
2023-05-08T22:15:50.274Z,98658.18
2023-05-08T22:18:18.523Z,98656.35
2023-05-08T22:20:47.026Z,98653.23
2023-05-08T22:23:15.427Z,98646.73
2023-05-08T22:25:43.661Z,98645.95
2023-05-08T22:28:12.338Z,98644.63
2023-05-08T22:30:40.590Z,98643.97
2023-05-08T22:33:08.826Z,98640.77
2023-05-08T22:35:37.228Z,98639.17
2023-05-08T22:38:05.447Z,98639.33
2023-05-08T22:40:33.981Z,98641.92
2023-05-08T22:43:02.754Z,98644.58
2023-05-08T22:45:32.414Z,98648.50
2023-05-08T22:48:00.926Z,98647.51
2023-05-08T22:50:29.253Z,98649.69
2023-05-08T22:52:57.479Z,98647.24
2023-05-08T22:55:25.762Z,98646.56
2023-05-08T22:57:53.983Z,98647.95
2023-05-08T23:00:22.281Z,98648.16
2023-05-08T23:02:51.221Z,98647.35
2023-05-08T23:05:19.622Z,98650.50
2023-05-08T23:07:47.865Z,98650.86
2023-05-08T23:10:16.201Z,98643.88
2023-05-08T23:12:44.432Z,98639.64
2023-05-08T23:15:13.275Z,98637.86
2023-05-08T23:17:41.754Z,98642.45
2023-05-08T23:20:11.618Z,98638.90
2023-05-08T23:22:39.900Z,98642.97
2023-05-08T23:25:12.129Z,98640.83
2023-05-08T23:27:41.201Z,98641.17
2023-05-08T23:30:13.257Z,98638.24
2023-05-08T23:32:41.802Z,98637.73
2023-05-08T23:35:10.723Z,98633.19
2023-05-08T23:37:39.053Z,98633.88
2023-05-08T23:40:08.508Z,98630.69
2023-05-08T23:42:37.292Z,98631.95
2023-05-08T23:45:07.871Z,98629.40
2023-05-08T23:47:36.433Z,98631.65
2023-05-08T23:50:06.012Z,98632.11
2023-05-08T23:52:34.247Z,98630.01
2023-05-08T23:55:02.465Z,98634.53
2023-05-08T23:57:30.740Z,98633.94
2023-05-08T23:59:58.918Z,98629.09
